Wetterverlauf

Letzte Wetterlage 01.11.2014 14:37
Wetterdiagramm
Tabellarische Darstellung
Datum Temperatur Windchill Feuchte Luftdruck Windrichtung Windstärke Niederschlag
01.11.2014 14:37 18,0 °C 18,0 °C 67 % 1018,0 hPa 0.0 0,00 mm
01.11.2014 14:27 17,9 °C 17,9 °C 66 % 1018,0 hPa 0.0 0,00 mm
01.11.2014 14:17 17,8 °C 17,8 °C 66 % 1018,1 hPa 0.0 0,00 mm
01.11.2014 14:07 17,6 °C 17,6 °C 66 % 1018,2 hPa 0.0 0,00 mm
01.11.2014 13:57 17,4 °C 17,4 °C 65 % 1018,4 hPa 0.0 0,00 mm
01.11.2014 13:47 17,2 °C 17,2 °C 65 % 1018,4 hPa 0.0 0,00 mm
01.11.2014 13:37 17,0 °C 17,0 °C 66 % 1018,5 hPa 0.0 0,00 mm
01.11.2014 13:27 16,7 °C 16,7 °C 66 % 1018,5 hPa 0.0 0,00 mm
01.11.2014 13:17 16,5 °C 16,5 °C 68 % 1018,6 hPa 0.0 0,00 mm
01.11.2014 13:07 16,2 °C 16,2 °C 68 % 1018,7 hPa 0.0 0,00 mm
01.11.2014 12:57 16,0 °C 16,0 °C 69 % 1018,8 hPa 0.0 0,00 mm
01.11.2014 12:47 15,7 °C 15,7 °C 70 % 1018,8 hPa 0.0 0,00 mm
01.11.2014 12:37 15,5 °C 15,5 °C 72 % 1018,8 hPa 0.0 0,00 mm
01.11.2014 12:27 15,2 °C 15,2 °C 74 % 1018,9 hPa 0.0 0,00 mm
01.11.2014 12:17 15,0 °C 15,0 °C 78 % 1019,0 hPa 0.0 0,00 mm
01.11.2014 12:07 14,7 °C 14,7 °C 82 % 1019,1 hPa 0.0 0,00 mm
01.11.2014 11:57 14,6 °C 14,6 °C 82 % 1019,2 hPa 0.0 0,00 mm
01.11.2014 11:47 14,4 °C 14,4 °C 83 % 1019,3 hPa 0.0 0,00 mm
01.11.2014 11:37 14,1 °C 14,1 °C 87 % 1019,3 hPa 0.0 0,00 mm
01.11.2014 11:27 13,6 °C 13,6 °C 87 % 1019,4 hPa 0.0 0,00 mm
01.11.2014 11:17 13,4 °C 13,4 °C 88 % 1019,6 hPa 0.0 0,00 mm
01.11.2014 11:07 13,0 °C 13,0 °C 88 % 1019,6 hPa 0.0 0,00 mm
01.11.2014 10:57 12,6 °C 12,6 °C 88 % 1019,6 hPa 0.0 0,00 mm
01.11.2014 10:47 12,2 °C 12,2 °C 88 % 1019,7 hPa 0.0 0,00 mm
01.11.2014 10:37 11,9 °C 11,9 °C 89 % 1019,7 hPa 0.0 0,00 mm
Empfehlen Sie wetter.com
| Mehr
Neue Wetterwarnung

Neue Niederschlagsmeldung
Neue Meldung
Regen Liveticker
    sehr starker Regen/Gewitter
    starker Regen/Gewitter
    mäßiger bis starker Regen
    mäßiger Regen
    leichter bis mäßiger Regen
    kein Regen